sensor_id;sensor_type;location;lat;lon;timestamp;P1;P2;P0
57884;PMS5003;43703;51.060;-0.086;2022-08-07T00:00:38;16;15;
57884;PMS5003;43703;51.060;-0.086;2022-08-07T00:03:03;17;16;
57884;PMS5003;43703;51.060;-0.086;2022-08-07T00:05:29;14;13;
57884;PMS5003;43703;51.060;-0.086;2022-08-07T00:07:54;17;17;
57884;PMS5003;43703;51.060;-0.086;2022-08-07T00:10:19;17;16;
57884;PMS5003;43703;51.060;-0.086;2022-08-07T00:12:45;13;13;
57884;PMS5003;43703;51.060;-0.086;2022-08-07T00:15:10;16;16;
57884;PMS5003;43703;51.060;-0.086;2022-08-07T00:17:35;12;12;
57884;PMS5003;43703;51.060;-0.086;2022-08-07T00:20:00;15;11;
57884;PMS5003;43703;51.060;-0.086;2022-08-07T00:22:25;15;13;
57884;PMS5003;43703;51.060;-0.086;2022-08-07T00:24:50;14;13;
57884;PMS5003;43703;51.060;-0.086;2022-08-07T00:27:16;13;13;
57884;PMS5003;43703;51.060;-0.086;2022-08-07T00:29:41;15;14;
57884;PMS5003;43703;51.060;-0.086;2022-08-07T00:32:06;13;12;
57884;PMS5003;43703;51.060;-0.086;2022-08-07T00:34:31;14;13;
57884;PMS5003;43703;51.060;-0.086;2022-08-07T00:36:56;12;11;
57884;PMS5003;43703;51.060;-0.086;2022-08-07T00:39:22;14;13;
57884;PMS5003;43703;51.060;-0.086;2022-08-07T00:41:48;14;14;
57884;PMS5003;43703;51.060;-0.086;2022-08-07T00:44:13;42;42;
57884;PMS5003;43703;51.060;-0.086;2022-08-07T00:46:38;34;32;
57884;PMS5003;43703;51.060;-0.086;2022-08-07T00:49:04;24;21;
57884;PMS5003;43703;51.060;-0.086;2022-08-07T00:51:29;23;21;
57884;PMS5003;43703;51.060;-0.086;2022-08-07T00:53:55;16;15;
57884;PMS5003;43703;51.060;-0.086;2022-08-07T00:56:21;16;16;
57884;PMS5003;43703;51.060;-0.086;2022-08-07T00:58:46;18;14;
57884;PMS5003;43703;51.060;-0.086;2022-08-07T01:01:12;18;17;
57884;PMS5003;43703;51.060;-0.086;2022-08-07T01:03:36;21;21;
57884;PMS5003;43703;51.060;-0.086;2022-08-07T01:06:02;15;13;
57884;PMS5003;43703;51.060;-0.086;2022-08-07T01:08:28;15;14;
57884;PMS5003;43703;51.060;-0.086;2022-08-07T01:10:53;15;15;
57884;PMS5003;43703;51.060;-0.086;2022-08-07T01:13:18;12;12;
57884;PMS5003;43703;51.060;-0.086;2022-08-07T01:15:44;16;13;
57884;PMS5003;43703;51.060;-0.086;2022-08-07T01:18:09;12;10;
57884;PMS5003;43703;51.060;-0.086;2022-08-07T01:20:36;10;10;
57884;PMS5003;43703;51.060;-0.086;2022-08-07T01:23:01;13;13;
57884;PMS5003;43703;51.060;-0.086;2022-08-07T01:25:25;12;12;
57884;PMS5003;43703;51.060;-0.086;2022-08-07T01:27:51;11;10;
57884;PMS5003;43703;51.060;-0.086;2022-08-07T01:30:16;11;11;
57884;PMS5003;43703;51.060;-0.086;2022-08-07T01:32:41;12;11;
57884;PMS5003;43703;51.060;-0.086;2022-08-07T01:35:07;13;13;
57884;PMS5003;43703;51.060;-0.086;2022-08-07T01:37:33;16;13;
57884;PMS5003;43703;51.060;-0.086;2022-08-07T01:39:58;14;14;
57884;PMS5003;43703;51.060;-0.086;2022-08-07T01:42:24;11;11;
57884;PMS5003;43703;51.060;-0.086;2022-08-07T01:44:48;12;10;
57884;PMS5003;43703;51.060;-0.086;2022-08-07T01:47:14;16;14;
57884;PMS5003;43703;51.060;-0.086;2022-08-07T01:49:39;11;11;
57884;PMS5003;43703;51.060;-0.086;2022-08-07T01:52:05;11;10;
57884;PMS5003;43703;51.060;-0.086;2022-08-07T01:54:32;13;11;
57884;PMS5003;43703;51.060;-0.086;2022-08-07T01:56:56;11;9;
57884;PMS5003;43703;51.060;-0.086;2022-08-07T01:59:23;10;10;
57884;PMS5003;43703;51.060;-0.086;2022-08-07T02:01:47;10;10;
57884;PMS5003;43703;51.060;-0.086;2022-08-07T02:04:12;10;10;
57884;PMS5003;43703;51.060;-0.086;2022-08-07T02:06:35;12;10;
57884;PMS5003;43703;51.060;-0.086;2022-08-07T02:09:02;11;11;
57884;PMS5003;43703;51.060;-0.086;2022-08-07T02:11:26;10;8;
57884;PMS5003;43703;51.060;-0.086;2022-08-07T02:13:51;9;9;
57884;PMS5003;43703;51.060;-0.086;2022-08-07T02:16:16;10;10;
57884;PMS5003;43703;51.060;-0.086;2022-08-07T02:18:42;8;8;
57884;PMS5003;43703;51.060;-0.086;2022-08-07T02:21:07;10;10;
57884;PMS5003;43703;51.060;-0.086;2022-08-07T02:23:34;10;10;
57884;PMS5003;43703;51.060;-0.086;2022-08-07T02:25:58;10;9;
57884;PMS5003;43703;51.060;-0.086;2022-08-07T02:28:24;8;8;
57884;PMS5003;43703;51.060;-0.086;2022-08-07T02:30:49;8;8;
57884;PMS5003;43703;51.060;-0.086;2022-08-07T02:33:14;8;8;
57884;PMS5003;43703;51.060;-0.086;2022-08-07T02:35:39;9;8;
57884;PMS5003;43703;51.060;-0.086;2022-08-07T02:38:04;12;10;
57884;PMS5003;43703;51.060;-0.086;2022-08-07T02:40:29;9;9;
57884;PMS5003;43703;51.060;-0.086;2022-08-07T02:42:54;9;9;
57884;PMS5003;43703;51.060;-0.086;2022-08-07T02:45:19;10;10;
57884;PMS5003;43703;51.060;-0.086;2022-08-07T02:47:44;10;10;
57884;PMS5003;43703;51.060;-0.086;2022-08-07T02:50:09;9;9;
57884;PMS5003;43703;51.060;-0.086;2022-08-07T02:52:36;8;7;
57884;PMS5003;43703;51.060;-0.086;2022-08-07T02:55:00;9;9;
57884;PMS5003;43703;51.060;-0.086;2022-08-07T02:57:24;9;8;
57884;PMS5003;43703;51.060;-0.086;2022-08-07T02:59:50;7;7;
57884;PMS5003;43703;51.060;-0.086;2022-08-07T03:02:15;9;9;
57884;PMS5003;43703;51.060;-0.086;2022-08-07T03:04:41;8;8;
57884;PMS5003;43703;51.060;-0.086;2022-08-07T03:07:06;12;10;
57884;PMS5003;43703;51.060;-0.086;2022-08-07T03:09:31;10;10;
57884;PMS5003;43703;51.060;-0.086;2022-08-07T03:11:57;10;10;
57884;PMS5003;43703;51.060;-0.086;2022-08-07T03:14:21;10;9;
57884;PMS5003;43703;51.060;-0.086;2022-08-07T03:16:46;8;8;
57884;PMS5003;43703;51.060;-0.086;2022-08-07T03:19:11;7;7;
57884;PMS5003;43703;51.060;-0.086;2022-08-07T03:21:36;8;8;
57884;PMS5003;43703;51.060;-0.086;2022-08-07T03:24:02;7;7;
57884;PMS5003;43703;51.060;-0.086;2022-08-07T03:26:28;8;8;
57884;PMS5003;43703;51.060;-0.086;2022-08-07T03:28:52;9;9;
57884;PMS5003;43703;51.060;-0.086;2022-08-07T03:31:18;7;7;
57884;PMS5003;43703;51.060;-0.086;2022-08-07T03:33:43;7;7;
57884;PMS5003;43703;51.060;-0.086;2022-08-07T03:36:08;6;6;
57884;PMS5003;43703;51.060;-0.086;2022-08-07T03:38:32;7;7;
57884;PMS5003;43703;51.060;-0.086;2022-08-07T03:40:57;7;7;
57884;PMS5003;43703;51.060;-0.086;2022-08-07T03:43:22;6;6;
57884;PMS5003;43703;51.060;-0.086;2022-08-07T03:45:48;7;7;
57884;PMS5003;43703;51.060;-0.086;2022-08-07T03:48:12;6;6;
57884;PMS5003;43703;51.060;-0.086;2022-08-07T03:50:38;8;8;
57884;PMS5003;43703;51.060;-0.086;2022-08-07T03:53:03;6;6;
57884;PMS5003;43703;51.060;-0.086;2022-08-07T03:55:28;5;5;
57884;PMS5003;43703;51.060;-0.086;2022-08-07T03:57:53;6;6;
57884;PMS5003;43703;51.060;-0.086;2022-08-07T04:00:18;6;4;
57884;PMS5003;43703;51.060;-0.086;2022-08-07T04:02:43;7;7;
57884;PMS5003;43703;51.060;-0.086;2022-08-07T04:05:08;8;7;
57884;PMS5003;43703;51.060;-0.086;2022-08-07T04:07:33;5;5;
57884;PMS5003;43703;51.060;-0.086;2022-08-07T04:09:58;7;6;
57884;PMS5003;43703;51.060;-0.086;2022-08-07T04:12:23;6;6;
57884;PMS5003;43703;51.060;-0.086;2022-08-07T04:14:48;7;7;
57884;PMS5003;43703;51.060;-0.086;2022-08-07T04:17:13;7;7;
57884;PMS5003;43703;51.060;-0.086;2022-08-07T04:19:39;6;6;
57884;PMS5003;43703;51.060;-0.086;2022-08-07T04:22:04;7;7;
57884;PMS5003;43703;51.060;-0.086;2022-08-07T04:24:29;6;6;
57884;PMS5003;43703;51.060;-0.086;2022-08-07T04:26:54;6;6;
57884;PMS5003;43703;51.060;-0.086;2022-08-07T04:29:19;7;7;
57884;PMS5003;43703;51.060;-0.086;2022-08-07T04:31:44;6;6;
57884;PMS5003;43703;51.060;-0.086;2022-08-07T04:34:09;7;7;
57884;PMS5003;43703;51.060;-0.086;2022-08-07T04:36:34;7;7;
57884;PMS5003;43703;51.060;-0.086;2022-08-07T04:38:59;6;6;
57884;PMS5003;43703;51.060;-0.086;2022-08-07T04:41:24;6;6;
57884;PMS5003;43703;51.060;-0.086;2022-08-07T04:43:50;9;7;
57884;PMS5003;43703;51.060;-0.086;2022-08-07T04:46:17;7;7;
57884;PMS5003;43703;51.060;-0.086;2022-08-07T04:48:42;7;7;
57884;PMS5003;43703;51.060;-0.086;2022-08-07T04:51:07;7;7;
57884;PMS5003;43703;51.060;-0.086;2022-08-07T04:53:32;6;6;
57884;PMS5003;43703;51.060;-0.086;2022-08-07T04:55:56;8;5;
57884;PMS5003;43703;51.060;-0.086;2022-08-07T04:58:23;6;6;
57884;PMS5003;43703;51.060;-0.086;2022-08-07T05:00:46;3;3;
57884;PMS5003;43703;51.060;-0.086;2022-08-07T05:03:13;8;5;
57884;PMS5003;43703;51.060;-0.086;2022-08-07T05:05:36;6;6;
57884;PMS5003;43703;51.060;-0.086;2022-08-07T05:08:02;6;6;
57884;PMS5003;43703;51.060;-0.086;2022-08-07T05:10:28;6;6;
57884;PMS5003;43703;51.060;-0.086;2022-08-07T05:12:51;9;7;
57884;PMS5003;43703;51.060;-0.086;2022-08-07T05:15:17;5;5;
57884;PMS5003;43703;51.060;-0.086;2022-08-07T05:17:41;8;6;
57884;PMS5003;43703;51.060;-0.086;2022-08-07T05:20:06;8;8;
57884;PMS5003;43703;51.060;-0.086;2022-08-07T05:22:30;6;6;
57884;PMS5003;43703;51.060;-0.086;2022-08-07T05:24:55;6;6;
57884;PMS5003;43703;51.060;-0.086;2022-08-07T05:27:21;6;6;
57884;PMS5003;43703;51.060;-0.086;2022-08-07T05:29:46;8;8;
57884;PMS5003;43703;51.060;-0.086;2022-08-07T05:32:11;5;5;
57884;PMS5003;43703;51.060;-0.086;2022-08-07T05:34:36;5;5;
57884;PMS5003;43703;51.060;-0.086;2022-08-07T05:37:01;5;5;
57884;PMS5003;43703;51.060;-0.086;2022-08-07T05:39:26;7;7;
57884;PMS5003;43703;51.060;-0.086;2022-08-07T05:41:51;7;7;
57884;PMS5003;43703;51.060;-0.086;2022-08-07T05:44:16;5;5;
57884;PMS5003;43703;51.060;-0.086;2022-08-07T05:46:41;5;5;
57884;PMS5003;43703;51.060;-0.086;2022-08-07T05:49:07;7;7;
57884;PMS5003;43703;51.060;-0.086;2022-08-07T05:51:31;4;4;
57884;PMS5003;43703;51.060;-0.086;2022-08-07T05:53:56;5;5;
57884;PMS5003;43703;51.060;-0.086;2022-08-07T05:56:21;5;5;
57884;PMS5003;43703;51.060;-0.086;2022-08-07T05:58:46;5;5;
57884;PMS5003;43703;51.060;-0.086;2022-08-07T06:01:12;8;8;
57884;PMS5003;43703;51.060;-0.086;2022-08-07T06:03:37;6;6;
57884;PMS5003;43703;51.060;-0.086;2022-08-07T06:06:01;5;5;
57884;PMS5003;43703;51.060;-0.086;2022-08-07T06:08:26;5;5;
57884;PMS5003;43703;51.060;-0.086;2022-08-07T06:10:51;7;7;
57884;PMS5003;43703;51.060;-0.086;2022-08-07T06:13:16;7;7;
57884;PMS5003;43703;51.060;-0.086;2022-08-07T06:15:42;4;4;
57884;PMS5003;43703;51.060;-0.086;2022-08-07T06:18:07;6;6;
57884;PMS5003;43703;51.060;-0.086;2022-08-07T06:20:34;6;6;
57884;PMS5003;43703;51.060;-0.086;2022-08-07T06:22:56;5;4;
57884;PMS5003;43703;51.060;-0.086;2022-08-07T06:25:21;6;6;
57884;PMS5003;43703;51.060;-0.086;2022-08-07T06:27:47;6;6;
57884;PMS5003;43703;51.060;-0.086;2022-08-07T06:30:12;7;6;
57884;PMS5003;43703;51.060;-0.086;2022-08-07T06:32:37;5;5;
57884;PMS5003;43703;51.060;-0.086;2022-08-07T06:35:02;5;5;
57884;PMS5003;43703;51.060;-0.086;2022-08-07T06:37:27;5;5;
57884;PMS5003;43703;51.060;-0.086;2022-08-07T06:39:52;4;4;
57884;PMS5003;43703;51.060;-0.086;2022-08-07T06:42:18;7;7;
57884;PMS5003;43703;51.060;-0.086;2022-08-07T06:44:42;8;6;
57884;PMS5003;43703;51.060;-0.086;2022-08-07T06:47:07;6;5;
57884;PMS5003;43703;51.060;-0.086;2022-08-07T06:49:32;6;4;
57884;PMS5003;43703;51.060;-0.086;2022-08-07T06:51:57;6;6;
57884;PMS5003;43703;51.060;-0.086;2022-08-07T06:54:23;4;4;
57884;PMS5003;43703;51.060;-0.086;2022-08-07T06:56:49;6;5;
57884;PMS5003;43703;51.060;-0.086;2022-08-07T06:59:17;3;3;
57884;PMS5003;43703;51.060;-0.086;2022-08-07T07:01:41;2;2;
57884;PMS5003;43703;51.060;-0.086;2022-08-07T07:04:06;4;4;
57884;PMS5003;43703;51.060;-0.086;2022-08-07T07:06:32;3;3;
57884;PMS5003;43703;51.060;-0.086;2022-08-07T07:11:24;6;6;
57884;PMS5003;43703;51.060;-0.086;2022-08-07T07:13:50;4;4;
57884;PMS5003;43703;51.060;-0.086;2022-08-07T07:16:16;3;3;
57884;PMS5003;43703;51.060;-0.086;2022-08-07T07:18:43;5;4;
57884;PMS5003;43703;51.060;-0.086;2022-08-07T07:21:11;4;2;
57884;PMS5003;43703;51.060;-0.086;2022-08-07T07:23:33;3;3;
57884;PMS5003;43703;51.060;-0.086;2022-08-07T07:25:59;3;3;
57884;PMS5003;43703;51.060;-0.086;2022-08-07T07:28:26;3;3;
57884;PMS5003;43703;51.060;-0.086;2022-08-07T07:30:52;2;2;
57884;PMS5003;43703;51.060;-0.086;2022-08-07T07:33:16;3;3;
57884;PMS5003;43703;51.060;-0.086;2022-08-07T07:35:43;3;3;
57884;PMS5003;43703;51.060;-0.086;2022-08-07T07:38:08;2;2;
57884;PMS5003;43703;51.060;-0.086;2022-08-07T07:40:34;4;3;
57884;PMS5003;43703;51.060;-0.086;2022-08-07T07:43:00;3;3;
57884;PMS5003;43703;51.060;-0.086;2022-08-07T07:45:26;3;3;
57884;PMS5003;43703;51.060;-0.086;2022-08-07T07:47:52;5;3;
57884;PMS5003;43703;51.060;-0.086;2022-08-07T07:50:17;4;4;
57884;PMS5003;43703;51.060;-0.086;2022-08-07T07:52:43;3;3;
57884;PMS5003;43703;51.060;-0.086;2022-08-07T07:55:09;2;2;
57884;PMS5003;43703;51.060;-0.086;2022-08-07T07:57:35;2;2;
57884;PMS5003;43703;51.060;-0.086;2022-08-07T08:00:00;2;2;
57884;PMS5003;43703;51.060;-0.086;2022-08-07T08:02:25;4;4;
57884;PMS5003;43703;51.060;-0.086;2022-08-07T08:04:50;2;2;
57884;PMS5003;43703;51.060;-0.086;2022-08-07T08:07:16;3;3;
57884;PMS5003;43703;51.060;-0.086;2022-08-07T08:09:42;3;3;
57884;PMS5003;43703;51.060;-0.086;2022-08-07T08:12:08;3;3;
57884;PMS5003;43703;51.060;-0.086;2022-08-07T08:14:34;3;3;
57884;PMS5003;43703;51.060;-0.086;2022-08-07T08:16:59;4;4;
57884;PMS5003;43703;51.060;-0.086;2022-08-07T08:19:24;6;4;
57884;PMS5003;43703;51.060;-0.086;2022-08-07T08:21:49;2;2;
57884;PMS5003;43703;51.060;-0.086;2022-08-07T08:24:13;4;4;
57884;PMS5003;43703;51.060;-0.086;2022-08-07T08:26:39;3;3;
57884;PMS5003;43703;51.060;-0.086;2022-08-07T08:29:03;4;4;
57884;PMS5003;43703;51.060;-0.086;2022-08-07T08:31:29;5;5;
57884;PMS5003;43703;51.060;-0.086;2022-08-07T08:33:54;3;3;
57884;PMS5003;43703;51.060;-0.086;2022-08-07T08:36:19;5;4;
57884;PMS5003;43703;51.060;-0.086;2022-08-07T08:38:44;6;5;
57884;PMS5003;43703;51.060;-0.086;2022-08-07T08:41:11;5;5;
57884;PMS5003;43703;51.060;-0.086;2022-08-07T08:43:37;6;6;
57884;PMS5003;43703;51.060;-0.086;2022-08-07T08:46:03;8;6;
57884;PMS5003;43703;51.060;-0.086;2022-08-07T08:48:26;4;4;
57884;PMS5003;43703;51.060;-0.086;2022-08-07T08:50:51;7;7;
57884;PMS5003;43703;51.060;-0.086;2022-08-07T08:53:15;6;6;
57884;PMS5003;43703;51.060;-0.086;2022-08-07T08:55:40;11;10;
57884;PMS5003;43703;51.060;-0.086;2022-08-07T08:58:05;10;9;
57884;PMS5003;43703;51.060;-0.086;2022-08-07T09:00:31;9;9;
57884;PMS5003;43703;51.060;-0.086;2022-08-07T09:02:55;8;8;
57884;PMS5003;43703;51.060;-0.086;2022-08-07T09:05:22;10;10;
57884;PMS5003;43703;51.060;-0.086;2022-08-07T09:07:46;10;10;
57884;PMS5003;43703;51.060;-0.086;2022-08-07T09:10:13;11;9;
57884;PMS5003;43703;51.060;-0.086;2022-08-07T09:12:39;8;7;
57884;PMS5003;43703;51.060;-0.086;2022-08-07T09:15:03;7;7;
57884;PMS5003;43703;51.060;-0.086;2022-08-07T09:17:29;7;7;
57884;PMS5003;43703;51.060;-0.086;2022-08-07T09:19:52;6;6;
57884;PMS5003;43703;51.060;-0.086;2022-08-07T09:22:20;8;8;
57884;PMS5003;43703;51.060;-0.086;2022-08-07T09:24:45;7;7;
57884;PMS5003;43703;51.060;-0.086;2022-08-07T09:27:08;10;7;
57884;PMS5003;43703;51.060;-0.086;2022-08-07T09:29:32;8;8;
57884;PMS5003;43703;51.060;-0.086;2022-08-07T09:31:58;9;8;
57884;PMS5003;43703;51.060;-0.086;2022-08-07T09:34:21;7;7;
57884;PMS5003;43703;51.060;-0.086;2022-08-07T09:36:47;11;8;
57884;PMS5003;43703;51.060;-0.086;2022-08-07T09:39:17;9;8;
57884;PMS5003;43703;51.060;-0.086;2022-08-07T09:41:37;7;7;
57884;PMS5003;43703;51.060;-0.086;2022-08-07T09:44:03;10;9;
57884;PMS5003;43703;51.060;-0.086;2022-08-07T09:46:30;7;7;
57884;PMS5003;43703;51.060;-0.086;2022-08-07T09:48:55;13;11;
57884;PMS5003;43703;51.060;-0.086;2022-08-07T09:51:23;11;11;
57884;PMS5003;43703;51.060;-0.086;2022-08-07T09:53:42;9;9;
57884;PMS5003;43703;51.060;-0.086;2022-08-07T10:01:02;15;15;
57884;PMS5003;43703;51.060;-0.086;2022-08-07T10:08:18;12;12;
57884;PMS5003;43703;51.060;-0.086;2022-08-07T10:10:40;9;9;
57884;PMS5003;43703;51.060;-0.086;2022-08-07T10:13:12;9;9;
57884;PMS5003;43703;51.060;-0.086;2022-08-07T10:18:01;10;8;
57884;PMS5003;43703;51.060;-0.086;2022-08-07T10:20:20;11;11;
57884;PMS5003;43703;51.060;-0.086;2022-08-07T10:22:47;10;9;
57884;PMS5003;43703;51.060;-0.086;2022-08-07T10:25:12;10;10;
57884;PMS5003;43703;51.060;-0.086;2022-08-07T10:27:39;11;10;
57884;PMS5003;43703;51.060;-0.086;2022-08-07T10:30:02;11;9;
57884;PMS5003;43703;51.060;-0.086;2022-08-07T10:32:30;10;10;
57884;PMS5003;43703;51.060;-0.086;2022-08-07T10:34:53;11;10;
57884;PMS5003;43703;51.060;-0.086;2022-08-07T10:37:19;9;9;
57884;PMS5003;43703;51.060;-0.086;2022-08-07T10:39:43;6;6;
57884;PMS5003;43703;51.060;-0.086;2022-08-07T10:42:06;8;8;
57884;PMS5003;43703;51.060;-0.086;2022-08-07T10:44:31;11;6;
57884;PMS5003;43703;51.060;-0.086;2022-08-07T10:46:57;8;8;
57884;PMS5003;43703;51.060;-0.086;2022-08-07T10:49:22;9;9;
57884;PMS5003;43703;51.060;-0.086;2022-08-07T10:51:47;10;8;
57884;PMS5003;43703;51.060;-0.086;2022-08-07T10:54:12;9;8;
57884;PMS5003;43703;51.060;-0.086;2022-08-07T10:56:39;7;7;
57884;PMS5003;43703;51.060;-0.086;2022-08-07T10:59:05;7;7;
57884;PMS5003;43703;51.060;-0.086;2022-08-07T11:01:30;9;9;
57884;PMS5003;43703;51.060;-0.086;2022-08-07T11:03:53;9;9;
57884;PMS5003;43703;51.060;-0.086;2022-08-07T11:06:18;9;7;
57884;PMS5003;43703;51.060;-0.086;2022-08-07T11:08:42;8;7;
57884;PMS5003;43703;51.060;-0.086;2022-08-07T11:11:06;6;6;
57884;PMS5003;43703;51.060;-0.086;2022-08-07T11:13:31;9;7;
57884;PMS5003;43703;51.060;-0.086;2022-08-07T11:15:56;8;7;
57884;PMS5003;43703;51.060;-0.086;2022-08-07T11:18:22;8;6;
57884;PMS5003;43703;51.060;-0.086;2022-08-07T11:20:48;9;8;
57884;PMS5003;43703;51.060;-0.086;2022-08-07T11:23:13;5;5;
57884;PMS5003;43703;51.060;-0.086;2022-08-07T11:25:36;5;5;
57884;PMS5003;43703;51.060;-0.086;2022-08-07T11:28:03;8;6;
57884;PMS5003;43703;51.060;-0.086;2022-08-07T11:30:27;5;5;
57884;PMS5003;43703;51.060;-0.086;2022-08-07T11:32:53;7;6;
57884;PMS5003;43703;51.060;-0.086;2022-08-07T11:35:16;6;6;
57884;PMS5003;43703;51.060;-0.086;2022-08-07T11:37:46;6;6;
57884;PMS5003;43703;51.060;-0.086;2022-08-07T11:40:08;6;6;
57884;PMS5003;43703;51.060;-0.086;2022-08-07T11:42:35;7;7;
57884;PMS5003;43703;51.060;-0.086;2022-08-07T11:44:57;8;8;
57884;PMS5003;43703;51.060;-0.086;2022-08-07T11:47:24;8;8;
57884;PMS5003;43703;51.060;-0.086;2022-08-07T11:54:40;7;5;
57884;PMS5003;43703;51.060;-0.086;2022-08-07T11:57:04;8;8;
57884;PMS5003;43703;51.060;-0.086;2022-08-07T11:59:34;6;6;
57884;PMS5003;43703;51.060;-0.086;2022-08-07T12:01:55;6;6;
57884;PMS5003;43703;51.060;-0.086;2022-08-07T12:06:45;9;7;
57884;PMS5003;43703;51.060;-0.086;2022-08-07T12:09:08;7;7;
57884;PMS5003;43703;51.060;-0.086;2022-08-07T12:11:33;6;6;
57884;PMS5003;43703;51.060;-0.086;2022-08-07T12:13:57;6;6;
57884;PMS5003;43703;51.060;-0.086;2022-08-07T12:16:24;5;5;
57884;PMS5003;43703;51.060;-0.086;2022-08-07T12:18:48;6;6;
57884;PMS5003;43703;51.060;-0.086;2022-08-07T12:21:15;5;5;
57884;PMS5003;43703;51.060;-0.086;2022-08-07T12:23:41;11;7;
57884;PMS5003;43703;51.060;-0.086;2022-08-07T12:26:03;6;6;
57884;PMS5003;43703;51.060;-0.086;2022-08-07T12:28:30;5;5;
57884;PMS5003;43703;51.060;-0.086;2022-08-07T12:30:52;8;8;
57884;PMS5003;43703;51.060;-0.086;2022-08-07T12:33:18;8;8;
57884;PMS5003;43703;51.060;-0.086;2022-08-07T12:35:42;7;7;
57884;PMS5003;43703;51.060;-0.086;2022-08-07T12:38:07;7;6;
57884;PMS5003;43703;51.060;-0.086;2022-08-07T12:40:33;9;7;
57884;PMS5003;43703;51.060;-0.086;2022-08-07T12:42:58;8;8;
57884;PMS5003;43703;51.060;-0.086;2022-08-07T12:45:25;11;8;
57884;PMS5003;43703;51.060;-0.086;2022-08-07T12:48:00;9;7;
57884;PMS5003;43703;51.060;-0.086;2022-08-07T12:50:15;7;7;
57884;PMS5003;43703;51.060;-0.086;2022-08-07T12:52:40;8;8;
57884;PMS5003;43703;51.060;-0.086;2022-08-07T12:55:04;9;7;
57884;PMS5003;43703;51.060;-0.086;2022-08-07T12:57:29;8;8;
57884;PMS5003;43703;51.060;-0.086;2022-08-07T12:59:53;9;8;
57884;PMS5003;43703;51.060;-0.086;2022-08-07T13:04:46;10;10;
57884;PMS5003;43703;51.060;-0.086;2022-08-07T13:09:39;7;7;
57884;PMS5003;43703;51.060;-0.086;2022-08-07T13:12:00;7;7;
57884;PMS5003;43703;51.060;-0.086;2022-08-07T13:14:27;8;8;
57884;PMS5003;43703;51.060;-0.086;2022-08-07T13:16:51;9;9;
57884;PMS5003;43703;51.060;-0.086;2022-08-07T13:19:17;7;7;
57884;PMS5003;43703;51.060;-0.086;2022-08-07T13:21:39;9;9;
57884;PMS5003;43703;51.060;-0.086;2022-08-07T13:24:06;6;6;
57884;PMS5003;43703;51.060;-0.086;2022-08-07T13:26:30;10;7;
57884;PMS5003;43703;51.060;-0.086;2022-08-07T13:28:56;8;8;
57884;PMS5003;43703;51.060;-0.086;2022-08-07T13:31:21;11;9;
57884;PMS5003;43703;51.060;-0.086;2022-08-07T13:33:46;9;9;
57884;PMS5003;43703;51.060;-0.086;2022-08-07T13:36:10;9;9;
57884;PMS5003;43703;51.060;-0.086;2022-08-07T13:38:35;8;8;
57884;PMS5003;43703;51.060;-0.086;2022-08-07T13:41:01;7;7;
57884;PMS5003;43703;51.060;-0.086;2022-08-07T13:43:23;9;7;
57884;PMS5003;43703;51.060;-0.086;2022-08-07T13:45:51;9;8;
57884;PMS5003;43703;51.060;-0.086;2022-08-07T13:48:14;9;8;
57884;PMS5003;43703;51.060;-0.086;2022-08-07T13:50:40;9;8;
57884;PMS5003;43703;51.060;-0.086;2022-08-07T13:53:04;7;7;
57884;PMS5003;43703;51.060;-0.086;2022-08-07T13:55:29;8;8;
57884;PMS5003;43703;51.060;-0.086;2022-08-07T13:57:58;8;8;
57884;PMS5003;43703;51.060;-0.086;2022-08-07T14:00:19;7;7;
57884;PMS5003;43703;51.060;-0.086;2022-08-07T14:02:45;7;7;
57884;PMS5003;43703;51.060;-0.086;2022-08-07T14:05:10;8;8;
57884;PMS5003;43703;51.060;-0.086;2022-08-07T14:07:38;7;7;
57884;PMS5003;43703;51.060;-0.086;2022-08-07T14:10:00;9;9;
57884;PMS5003;43703;51.060;-0.086;2022-08-07T14:12:25;7;7;
57884;PMS5003;43703;51.060;-0.086;2022-08-07T14:14:51;11;9;
57884;PMS5003;43703;51.060;-0.086;2022-08-07T14:17:15;9;8;
57884;PMS5003;43703;51.060;-0.086;2022-08-07T14:19:46;10;10;
57884;PMS5003;43703;51.060;-0.086;2022-08-07T14:22:05;8;8;
57884;PMS5003;43703;51.060;-0.086;2022-08-07T14:24:31;9;8;
57884;PMS5003;43703;51.060;-0.086;2022-08-07T14:26:56;8;8;
57884;PMS5003;43703;51.060;-0.086;2022-08-07T14:29:22;7;7;
57884;PMS5003;43703;51.060;-0.086;2022-08-07T14:31:45;7;7;
57884;PMS5003;43703;51.060;-0.086;2022-08-07T14:34:10;9;9;
57884;PMS5003;43703;51.060;-0.086;2022-08-07T14:36:36;7;7;
57884;PMS5003;43703;51.060;-0.086;2022-08-07T14:39:02;7;7;
57884;PMS5003;43703;51.060;-0.086;2022-08-07T14:41:26;8;8;
57884;PMS5003;43703;51.060;-0.086;2022-08-07T14:43:51;7;7;
57884;PMS5003;43703;51.060;-0.086;2022-08-07T14:46:17;7;7;
57884;PMS5003;43703;51.060;-0.086;2022-08-07T14:48:41;9;7;
57884;PMS5003;43703;51.060;-0.086;2022-08-07T14:51:07;8;8;
57884;PMS5003;43703;51.060;-0.086;2022-08-07T14:53:35;7;7;
57884;PMS5003;43703;51.060;-0.086;2022-08-07T14:55:57;9;9;
57884;PMS5003;43703;51.060;-0.086;2022-08-07T14:58:24;9;9;
57884;PMS5003;43703;51.060;-0.086;2022-08-07T15:00:48;5;5;
57884;PMS5003;43703;51.060;-0.086;2022-08-07T15:03:13;7;7;
57884;PMS5003;43703;51.060;-0.086;2022-08-07T15:05:38;9;8;
57884;PMS5003;43703;51.060;-0.086;2022-08-07T15:08:03;9;8;
57884;PMS5003;43703;51.060;-0.086;2022-08-07T15:10:28;11;11;
57884;PMS5003;43703;51.060;-0.086;2022-08-07T15:12:55;8;8;
57884;PMS5003;43703;51.060;-0.086;2022-08-07T15:15:22;9;9;
57884;PMS5003;43703;51.060;-0.086;2022-08-07T15:17:44;8;7;
57884;PMS5003;43703;51.060;-0.086;2022-08-07T15:20:09;9;9;
57884;PMS5003;43703;51.060;-0.086;2022-08-07T15:22:41;8;8;
57884;PMS5003;43703;51.060;-0.086;2022-08-07T15:24:59;7;7;
57884;PMS5003;43703;51.060;-0.086;2022-08-07T15:27:24;10;10;
57884;PMS5003;43703;51.060;-0.086;2022-08-07T15:29:49;8;8;
57884;PMS5003;43703;51.060;-0.086;2022-08-07T15:32:13;8;8;
57884;PMS5003;43703;51.060;-0.086;2022-08-07T15:34:39;8;8;
57884;PMS5003;43703;51.060;-0.086;2022-08-07T15:37:04;8;8;
57884;PMS5003;43703;51.060;-0.086;2022-08-07T15:39:29;9;9;
57884;PMS5003;43703;51.060;-0.086;2022-08-07T15:41:57;10;9;
57884;PMS5003;43703;51.060;-0.086;2022-08-07T15:44:19;9;9;
57884;PMS5003;43703;51.060;-0.086;2022-08-07T15:46:44;9;9;
57884;PMS5003;43703;51.060;-0.086;2022-08-07T15:49:11;9;9;
57884;PMS5003;43703;51.060;-0.086;2022-08-07T15:51:35;9;9;
57884;PMS5003;43703;51.060;-0.086;2022-08-07T15:54:00;11;8;
57884;PMS5003;43703;51.060;-0.086;2022-08-07T15:56:29;10;8;
57884;PMS5003;43703;51.060;-0.086;2022-08-07T15:58:50;10;10;
57884;PMS5003;43703;51.060;-0.086;2022-08-07T16:01:16;10;9;
57884;PMS5003;43703;51.060;-0.086;2022-08-07T16:03:39;7;7;
57884;PMS5003;43703;51.060;-0.086;2022-08-07T16:06:05;8;8;
57884;PMS5003;43703;51.060;-0.086;2022-08-07T16:08:30;6;6;
57884;PMS5003;43703;51.060;-0.086;2022-08-07T16:10:55;10;9;
57884;PMS5003;43703;51.060;-0.086;2022-08-07T16:15:47;7;7;
57884;PMS5003;43703;51.060;-0.086;2022-08-07T16:18:15;9;9;
57884;PMS5003;43703;51.060;-0.086;2022-08-07T16:20:42;9;9;
57884;PMS5003;43703;51.060;-0.086;2022-08-07T16:25:28;10;10;
57884;PMS5003;43703;51.060;-0.086;2022-08-07T16:27:52;10;8;
57884;PMS5003;43703;51.060;-0.086;2022-08-07T16:30:15;11;11;
57884;PMS5003;43703;51.060;-0.086;2022-08-07T16:32:41;8;8;
57884;PMS5003;43703;51.060;-0.086;2022-08-07T16:35:09;12;9;
57884;PMS5003;43703;51.060;-0.086;2022-08-07T16:37:37;11;8;
57884;PMS5003;43703;51.060;-0.086;2022-08-07T16:42:27;10;9;
57884;PMS5003;43703;51.060;-0.086;2022-08-07T16:47:16;10;9;